Time;durP1;ratioP1;P1;durP2;ratioP2;P2;SDS_P1;SDS_P2;PMS_P1;PMS_P2;Temp;Humidity;BMP_temperature;BMP_pressure;BME280_temperature;BME280_humidity;BME280_pressure;Samples;Min_cycle;Max_cycle;Signal;HPM_P1;HPM_P2
2021/11/27 00:00:17;;;;;;;;;0.00;0.00;;;;;;;;5064790;28;11621;-78
2021/11/27 00:02:44;;;;;;;;;0.00;0.00;;;;;;;;5072737;28;11461;-78
2021/11/27 00:05:15;;;;;;;;;0.00;0.00;;;;;;;;5073179;28;11492;-78
2021/11/27 00:07:42;;;;;;;;;0.00;0.00;;;;;;;;5048099;28;11498;-78
2021/11/27 00:10:13;;;;;;;;;2.00;0.00;;;;;;;;5043641;28;11533;-78
2021/11/27 00:12:41;;;;;;;;;1.00;1.00;;;;;;;;5068399;28;11609;-78
2021/11/27 00:15:10;;;;;;;;;0.00;0.00;;;;;;;;5063881;28;11474;-79
2021/11/27 00:17:38;;;;;;;;;0.00;0.00;;;;;;;;5047051;28;11695;-79
2021/11/27 00:20:08;;;;;;;;;0.00;0.00;;;;;;;;5061679;28;11522;-79
2021/11/27 00:22:37;;;;;;;;;1.00;1.00;;;;;;;;5062721;28;11547;-79
2021/11/27 00:25:05;;;;;;;;;0.50;0.50;;;;;;;;5063914;28;11522;-80
2021/11/27 00:27:33;;;;;;;;;1.00;1.00;;;;;;;;5061852;28;11596;-80
2021/11/27 00:30:01;;;;;;;;;0.25;0.25;;;;;;;;5063354;28;11561;-80
2021/11/27 00:32:28;;;;;;;;;0.25;0.25;;;;;;;;5063270;28;11472;-80
2021/11/27 00:34:56;;;;;;;;;1.75;1.75;;;;;;;;5047444;28;11549;-79
2021/11/27 00:37:23;;;;;;;;;2.50;2.50;;;;;;;;5074937;28;11558;-79
2021/11/27 00:39:52;;;;;;;;;1.00;1.00;;;;;;;;5065259;28;11552;-80
2021/11/27 00:42:19;;;;;;;;;4.25;2.00;;;;;;;;5062630;28;11548;-79
2021/11/27 00:44:47;;;;;;;;;2.00;2.00;;;;;;;;5060428;28;11558;-80
2021/11/27 00:47:14;;;;;;;;;3.00;3.00;;;;;;;;5059310;28;11573;-79
2021/11/27 00:49:41;;;;;;;;;5.00;5.00;;;;;;;;5059638;28;11565;-79
2021/11/27 00:52:09;;;;;;;;;5.00;4.00;;;;;;;;5061637;28;11544;-79
2021/11/27 00:54:37;;;;;;;;;4.00;4.00;;;;;;;;5059659;28;11663;-80
2021/11/27 00:57:05;;;;;;;;;2.00;2.00;;;;;;;;5060160;28;11579;-79
2021/11/27 00:59:33;;;;;;;;;1.25;1.25;;;;;;;;5063727;28;11523;-80
2021/11/27 01:02:01;;;;;;;;;5.00;5.00;;;;;;;;5058693;28;11508;-79
2021/11/27 01:04:29;;;;;;;;;1.00;1.00;;;;;;;;5064379;28;11568;-79
2021/11/27 01:06:56;;;;;;;;;4.75;2.00;;;;;;;;5064173;28;11653;-79
2021/11/27 01:09:23;;;;;;;;;2.00;2.00;;;;;;;;5063654;28;11690;-79
2021/11/27 01:11:53;;;;;;;;;5.00;2.00;;;;;;;;5041184;28;11551;-79
2021/11/27 01:14:25;;;;;;;;;1.75;1.75;;;;;;;;5062896;28;11578;-79
2021/11/27 01:16:55;;;;;;;;;9.75;5.50;;;;;;;;5063741;28;11518;-80
2021/11/27 01:19:24;;;;;;;;;5.00;5.00;;;;;;;;5064523;28;11570;-79
2021/11/27 01:21:58;;;;;;;;;1.50;1.50;;;;;;;;5061993;28;11620;-79
2021/11/27 01:24:26;;;;;;;;;8.25;5.25;;;;;;;;5060285;28;11534;-80
2021/11/27 01:26:54;;;;;;;;;4.50;2.50;;;;;;;;5029033;28;11694;-79
2021/11/27 01:29:24;;;;;;;;;2.00;2.00;;;;;;;;5059218;28;12473;-79
2021/11/27 01:31:52;;;;;;;;;1.25;1.25;;;;;;;;5063891;28;12444;-79
2021/11/27 01:34:19;;;;;;;;;2.00;2.00;;;;;;;;5063700;28;11550;-79
2021/11/27 01:36:47;;;;;;;;;2.00;2.00;;;;;;;;5063106;28;11524;-79
2021/11/27 01:39:15;;;;;;;;;5.00;4.00;;;;;;;;5063903;28;12342;-79
2021/11/27 01:41:42;;;;;;;;;4.00;4.00;;;;;;;;5062768;28;12436;-79
2021/11/27 01:44:10;;;;;;;;;2.00;2.00;;;;;;;;5067651;28;11553;-79
2021/11/27 01:46:39;;;;;;;;;8.00;2.00;;;;;;;;5059793;28;11589;-79
2021/11/27 01:49:07;;;;;;;;;4.00;3.50;;;;;;;;5061324;28;11567;-78
2021/11/27 01:51:36;;;;;;;;;1.50;1.50;;;;;;;;5045176;28;11609;-79
2021/11/27 01:54:07;;;;;;;;;3.00;2.00;;;;;;;;5062166;28;11655;-80
2021/11/27 01:56:40;;;;;;;;;1.00;1.00;;;;;;;;5064072;28;12368;-79
2021/11/27 01:59:08;;;;;;;;;4.50;3.50;;;;;;;;5036245;28;11620;-80
2021/11/27 02:01:38;;;;;;;;;1.75;1.75;;;;;;;;5063771;28;11514;-79
2021/11/27 02:04:08;;;;;;;;;4.00;1.25;;;;;;;;5058358;28;11697;-80
2021/11/27 02:06:36;;;;;;;;;0.00;0.00;;;;;;;;5060762;28;11624;-80
2021/11/27 02:09:08;;;;;;;;;1.00;1.00;;;;;;;;5061810;28;11551;-79
2021/11/27 02:11:38;;;;;;;;;1.00;1.00;;;;;;;;5060823;28;12284;-79
2021/11/27 02:14:07;;;;;;;;;1.00;1.00;;;;;;;;5064145;28;11744;-79
2021/11/27 02:16:35;;;;;;;;;1.00;1.00;;;;;;;;5056790;28;11540;-79
2021/11/27 02:19:04;;;;;;;;;6.50;2.75;;;;;;;;5061798;28;11597;-79
2021/11/27 02:21:33;;;;;;;;;4.00;4.00;;;;;;;;5042561;28;11638;-79
2021/11/27 02:24:00;;;;;;;;;5.00;3.50;;;;;;;;5053000;28;11599;-80
2021/11/27 02:26:29;;;;;;;;;4.00;4.00;;;;;;;;5060636;28;11641;-80
2021/11/27 02:29:00;;;;;;;;;2.00;2.00;;;;;;;;5061604;28;11578;-81
2021/11/27 02:31:27;;;;;;;;;1.25;1.25;;;;;;;;5080310;28;11495;-79
2021/11/27 02:33:56;;;;;;;;;2.00;2.00;;;;;;;;5075431;28;11515;-79
2021/11/27 02:36:24;;;;;;;;;3.00;1.50;;;;;;;;5061668;28;11108;-81
2021/11/27 02:38:54;;;;;;;;;1.50;1.50;;;;;;;;5058881;28;11592;-80
2021/11/27 02:41:21;;;;;;;;;3.50;3.50;;;;;;;;5064287;28;11552;-81
2021/11/27 02:43:48;;;;;;;;;1.75;1.75;;;;;;;;5034992;28;11574;-81
2021/11/27 02:46:16;;;;;;;;;1.00;1.00;;;;;;;;5061012;28;11574;-80
2021/11/27 02:48:43;;;;;;;;;1.50;1.50;;;;;;;;5041794;28;11536;-80
2021/11/27 02:51:11;;;;;;;;;1.00;1.00;;;;;;;;5072683;28;11524;-80
2021/11/27 02:53:39;;;;;;;;;1.75;0.00;;;;;;;;5059614;28;11687;-80
2021/11/27 02:56:08;;;;;;;;;4.00;1.00;;;;;;;;5062970;28;11666;-80
2021/11/27 02:58:36;;;;;;;;;2.00;2.00;;;;;;;;5067002;28;11532;-80
2021/11/27 03:01:05;;;;;;;;;5.25;0.25;;;;;;;;5063174;28;11513;-80
2021/11/27 03:03:34;;;;;;;;;0.00;0.00;;;;;;;;5073368;28;11683;-80
2021/11/27 03:06:01;;;;;;;;;0.00;0.00;;;;;;;;5075925;28;11515;-81
2021/11/27 03:08:28;;;;;;;;;4.75;2.00;;;;;;;;5044714;28;11527;-80
2021/11/27 03:10:56;;;;;;;;;4.50;2.00;;;;;;;;5065112;28;11690;-79
2021/11/27 03:13:27;;;;;;;;;1.00;1.00;;;;;;;;5065966;28;11696;-79
2021/11/27 03:15:55;;;;;;;;;2.00;2.00;;;;;;;;5065047;28;11569;-80
2021/11/27 03:18:23;;;;;;;;;2.00;2.00;;;;;;;;5048368;28;11530;-79
2021/11/27 03:20:51;;;;;;;;;1.00;1.00;;;;;;;;5064514;28;11547;-79
2021/11/27 03:23:18;;;;;;;;;1.00;1.00;;;;;;;;5070236;28;11526;-79
2021/11/27 03:25:46;;;;;;;;;2.50;1.00;;;;;;;;5082699;28;11761;-79
2021/11/27 03:28:14;;;;;;;;;1.50;1.50;;;;;;;;5063389;28;11594;-79
2021/11/27 03:30:43;;;;;;;;;1.00;1.00;;;;;;;;5062101;28;11477;-79
2021/11/27 03:33:10;;;;;;;;;3.00;3.00;;;;;;;;5069061;28;11554;-79
2021/11/27 03:35:40;;;;;;;;;1.00;1.00;;;;;;;;5064928;28;11534;-79
2021/11/27 03:38:07;;;;;;;;;1.00;1.00;;;;;;;;5049783;28;12442;-80
2021/11/27 03:40:35;;;;;;;;;4.00;1.00;;;;;;;;5064435;28;11668;-79
2021/11/27 03:43:03;;;;;;;;;1.75;1.75;;;;;;;;5064752;28;11582;-79
2021/11/27 03:45:31;;;;;;;;;0.75;0.75;;;;;;;;5041395;28;11551;-81
2021/11/27 03:48:06;;;;;;;;;1.75;1.75;;;;;;;;5063542;28;11574;-80
2021/11/27 03:50:35;;;;;;;;;1.00;1.00;;;;;;;;5063692;28;11682;-80
2021/11/27 03:53:03;;;;;;;;;1.00;1.00;;;;;;;;5063681;28;11542;-80
2021/11/27 03:55:30;;;;;;;;;1.00;1.00;;;;;;;;5064481;28;11518;-81
2021/11/27 03:57:58;;;;;;;;;1.00;1.00;;;;;;;;5068586;28;11737;-81
2021/11/27 04:00:25;;;;;;;;;0.25;0.25;;;;;;;;5062027;28;11416;-80
2021/11/27 04:02:53;;;;;;;;;0.25;0.25;;;;;;;;5071034;28;11529;-80
2021/11/27 04:05:23;;;;;;;;;2.00;1.25;;;;;;;;5063402;28;12347;-80
2021/11/27 04:07:55;;;;;;;;;0.25;0.25;;;;;;;;5067071;28;11506;-80
2021/11/27 04:10:23;;;;;;;;;0.00;0.00;;;;;;;;5063374;28;11567;-80
2021/11/27 04:12:50;;;;;;;;;3.00;3.00;;;;;;;;5065718;28;11560;-80
2021/11/27 04:15:18;;;;;;;;;2.00;1.00;;;;;;;;5067129;28;11574;-81
2021/11/27 04:17:45;;;;;;;;;4.00;1.75;;;;;;;;5063241;28;11559;-80
2021/11/27 04:20:13;;;;;;;;;1.00;1.00;;;;;;;;5045012;28;11581;-80
2021/11/27 04:22:42;;;;;;;;;0.50;0.50;;;;;;;;5063362;28;11534;-79
2021/11/27 04:25:10;;;;;;;;;2.00;1.75;;;;;;;;5048939;28;11550;-80
2021/11/27 04:27:38;;;;;;;;;2.00;2.00;;;;;;;;5044573;28;11556;-80
2021/11/27 04:30:08;;;;;;;;;1.50;1.50;;;;;;;;5068243;28;11609;-79
2021/11/27 04:32:35;;;;;;;;;1.00;1.00;;;;;;;;5063420;28;11541;-80
2021/11/27 04:35:04;;;;;;;;;2.00;1.00;;;;;;;;5063137;28;11576;-80
2021/11/27 04:37:31;;;;;;;;;2.00;1.00;;;;;;;;5065809;28;11611;-80
2021/11/27 04:40:03;;;;;;;;;0.00;0.00;;;;;;;;5074884;28;11533;-80
2021/11/27 04:42:30;;;;;;;;;2.00;2.00;;;;;;;;5063069;28;11523;-79
2021/11/27 04:44:58;;;;;;;;;1.50;1.00;;;;;;;;5062158;28;11701;-80
2021/11/27 04:47:25;;;;;;;;;1.00;1.00;;;;;;;;5072419;28;11534;-80
2021/11/27 04:49:52;;;;;;;;;1.00;1.00;;;;;;;;5069060;28;11532;-80
2021/11/27 04:52:21;;;;;;;;;1.00;1.00;;;;;;;;5043192;28;11547;-80
2021/11/27 04:54:48;;;;;;;;;1.50;1.50;;;;;;;;5068700;28;11559;-81
2021/11/27 04:57:17;;;;;;;;;4.25;1.25;;;;;;;;5077373;28;11550;-80
2021/11/27 04:59:44;;;;;;;;;1.75;1.50;;;;;;;;5063052;28;11621;-80
2021/11/27 05:02:12;;;;;;;;;2.00;2.00;;;;;;;;5057402;28;11473;-80
2021/11/27 05:04:40;;;;;;;;;1.75;1.75;;;;;;;;5043250;28;11672;-80
2021/11/27 05:07:08;;;;;;;;;2.00;2.00;;;;;;;;5061719;28;11627;-79
2021/11/27 05:09:35;;;;;;;;;1.00;1.00;;;;;;;;5065756;28;11879;-80
2021/11/27 05:12:03;;;;;;;;;0.00;0.00;;;;;;;;5063933;28;11513;-80
2021/11/27 05:14:32;;;;;;;;;0.75;0.75;;;;;;;;5056761;28;11565;-79
2021/11/27 05:16:59;;;;;;;;;0.50;0.50;;;;;;;;5060254;28;11518;-79
2021/11/27 05:19:26;;;;;;;;;1.00;1.00;;;;;;;;5065364;28;11577;-79
2021/11/27 05:21:53;;;;;;;;;1.00;1.00;;;;;;;;5061040;28;11552;-79
2021/11/27 05:24:21;;;;;;;;;1.00;1.00;;;;;;;;5061745;28;11546;-79
2021/11/27 05:26:49;;;;;;;;;0.00;0.00;;;;;;;;5064833;28;11553;-79
2021/11/27 05:29:16;;;;;;;;;1.00;1.00;;;;;;;;5025898;28;11533;-79
2021/11/27 05:31:46;;;;;;;;;2.00;2.00;;;;;;;;5064371;28;11652;-79
2021/11/27 05:36:59;;;;;;;;;1.00;1.00;;;;;;;;5060111;28;11519;-78
2021/11/27 05:39:26;;;;;;;;;2.00;1.00;;;;;;;;5062330;28;11674;-79
2021/11/27 05:41:54;;;;;;;;;0.50;0.50;;;;;;;;5064773;28;11566;-78
2021/11/27 05:44:21;;;;;;;;;1.00;1.00;;;;;;;;5061723;28;11552;-79
2021/11/27 05:46:49;;;;;;;;;2.00;0.00;;;;;;;;5060957;28;11095;-79
2021/11/27 05:49:17;;;;;;;;;2.00;2.00;;;;;;;;5061432;28;11542;-80
2021/11/27 05:51:44;;;;;;;;;2.50;1.00;;;;;;;;5063236;28;12442;-79
2021/11/27 05:54:11;;;;;;;;;2.00;0.00;;;;;;;;5059634;28;11561;-79
2021/11/27 05:56:39;;;;;;;;;1.00;1.00;;;;;;;;5079905;28;11579;-79
2021/11/27 05:59:06;;;;;;;;;1.50;1.50;;;;;;;;5062687;28;11567;-79
2021/11/27 06:01:33;;;;;;;;;1.00;1.00;;;;;;;;5069462;28;11670;-79
2021/11/27 06:04:02;;;;;;;;;0.25;0.25;;;;;;;;5053380;28;11583;-78
2021/11/27 06:06:30;;;;;;;;;6.00;1.00;;;;;;;;5060398;28;11570;-78
2021/11/27 06:08:57;;;;;;;;;2.50;1.00;;;;;;;;5064343;28;11546;-79
2021/11/27 06:11:24;;;;;;;;;0.00;0.00;;;;;;;;5072738;28;11581;-76
2021/11/27 06:13:52;;;;;;;;;1.00;1.00;;;;;;;;5075533;28;11612;-78
2021/11/27 06:16:19;;;;;;;;;2.00;0.50;;;;;;;;5070047;28;11528;-80
2021/11/27 06:18:47;;;;;;;;;0.50;0.50;;;;;;;;5063140;28;11526;-78
2021/11/27 06:21:20;;;;;;;;;2.00;1.00;;;;;;;;5062965;28;11670;-79
2021/11/27 06:23:48;;;;;;;;;0.25;0.25;;;;;;;;5062652;28;12388;-76
2021/11/27 06:26:15;;;;;;;;;3.00;3.00;;;;;;;;5046106;28;12391;-78
2021/11/27 06:28:43;;;;;;;;;0.00;0.00;;;;;;;;5062613;28;11660;-75
2021/11/27 06:31:10;;;;;;;;;0.50;0.50;;;;;;;;5061506;28;11466;-81
2021/11/27 06:33:37;;;;;;;;;0.00;0.00;;;;;;;;5062412;28;12327;-76
2021/11/27 06:36:05;;;;;;;;;0.00;0.00;;;;;;;;5062023;28;11539;-75
2021/11/27 06:38:34;;;;;;;;;1.75;1.75;;;;;;;;5059576;28;11574;-80
2021/11/27 06:41:01;;;;;;;;;2.00;0.00;;;;;;;;5063922;28;12297;-79
2021/11/27 06:43:29;;;;;;;;;1.25;1.00;;;;;;;;5058647;28;11507;-79
2021/11/27 06:45:57;;;;;;;;;3.00;0.00;;;;;;;;5062784;28;11559;-82
2021/11/27 06:48:24;;;;;;;;;0.00;0.00;;;;;;;;5062280;28;11546;-77
2021/11/27 06:50:55;;;;;;;;;4.25;0.50;;;;;;;;5056912;28;11632;-76
2021/11/27 06:53:22;;;;;;;;;0.00;0.00;;;;;;;;5062229;28;11514;-74
2021/11/27 06:55:51;;;;;;;;;1.00;1.00;;;;;;;;5038652;28;11561;-75
2021/11/27 06:58:18;;;;;;;;;0.50;0.50;;;;;;;;5058121;28;11568;-79
2021/11/27 07:00:46;;;;;;;;;2.00;1.00;;;;;;;;5042243;28;11476;-80
2021/11/27 07:05:58;;;;;;;;;0.75;0.75;;;;;;;;5019585;28;11640;-82
2021/11/27 07:08:25;;;;;;;;;0.00;0.00;;;;;;;;5019210;28;11561;-76
2021/11/27 07:10:54;;;;;;;;;0.00;0.00;;;;;;;;5016336;28;11503;-80
2021/11/27 07:13:21;;;;;;;;;0.00;0.00;;;;;;;;5015022;28;11523;-79
2021/11/27 07:15:49;;;;;;;;;0.00;0.00;;;;;;;;5019953;28;11501;-78
2021/11/27 07:18:16;;;;;;;;;0.00;0.00;;;;;;;;5016858;28;12329;-76
2021/11/27 07:20:44;;;;;;;;;1.25;1.00;;;;;;;;5019374;28;11480;-80
2021/11/27 07:23:11;;;;;;;;;1.50;1.50;;;;;;;;5019383;28;11629;-78
2021/11/27 07:25:39;;;;;;;;;1.00;1.00;;;;;;;;5020935;28;11525;-80
2021/11/27 07:28:09;;;;;;;;;0.00;0.00;;;;;;;;5023513;28;11548;-80
2021/11/27 07:30:37;;;;;;;;;0.00;0.00;;;;;;;;5034536;28;11479;-78
2021/11/27 07:33:06;;;;;;;;;0.00;0.00;;;;;;;;5061533;28;11601;-81
2021/11/27 07:35:33;;;;;;;;;0.00;0.00;;;;;;;;5062757;28;11599;-78
2021/11/27 07:38:00;;;;;;;;;4.00;1.00;;;;;;;;5055948;28;11612;-82
2021/11/27 07:40:28;;;;;;;;;3.00;1.00;;;;;;;;5060790;28;11564;-80
2021/11/27 07:42:56;;;;;;;;;1.50;0.00;;;;;;;;5063598;28;12323;-79
2021/11/27 07:45:25;;;;;;;;;1.00;1.00;;;;;;;;5065588;28;12361;-81
2021/11/27 07:47:52;;;;;;;;;4.50;1.00;;;;;;;;5059725;28;11543;-79
2021/11/27 07:50:19;;;;;;;;;5.00;1.50;;;;;;;;5057104;28;11517;-78
2021/11/27 07:52:47;;;;;;;;;0.25;0.25;;;;;;;;5059417;28;11609;-79
2021/11/27 07:55:14;;;;;;;;;3.50;3.50;;;;;;;;5059685;28;13047;-79
2021/11/27 07:57:41;;;;;;;;;1.00;1.00;;;;;;;;5078626;28;11574;-78
2021/11/27 08:00:10;;;;;;;;;3.50;1.50;;;;;;;;5073139;28;10968;-78
2021/11/27 08:02:39;;;;;;;;;1.25;1.25;;;;;;;;5072220;28;11644;-77
2021/11/27 08:05:07;;;;;;;;;3.00;1.00;;;;;;;;5070830;28;11470;-76
2021/11/27 08:07:36;;;;;;;;;2.00;2.00;;;;;;;;5048761;28;11496;-78
2021/11/27 08:10:04;;;;;;;;;2.25;1.75;;;;;;;;5061973;28;12142;-76
2021/11/27 08:12:32;;;;;;;;;2.00;2.00;;;;;;;;5061529;28;11582;-77
2021/11/27 08:14:59;;;;;;;;;2.00;2.00;;;;;;;;5076615;28;11467;-78
2021/11/27 08:17:26;;;;;;;;;3.50;2.00;;;;;;;;5074707;28;11626;-78
2021/11/27 08:19:55;;;;;;;;;1.75;1.75;;;;;;;;5065779;28;11456;-78
2021/11/27 08:22:23;;;;;;;;;7.25;4.00;;;;;;;;5065723;28;11547;-78
2021/11/27 08:24:51;;;;;;;;;2.50;2.00;;;;;;;;5045801;28;11513;-77
2021/11/27 08:27:20;;;;;;;;;1.25;1.25;;;;;;;;5059861;28;11581;-75
2021/11/27 08:29:47;;;;;;;;;4.75;4.00;;;;;;;;5052806;28;11615;-77
2021/11/27 08:32:15;;;;;;;;;2.00;2.00;;;;;;;;5054019;28;11466;-76
2021/11/27 08:34:42;;;;;;;;;5.50;4.00;;;;;;;;5062572;28;11503;-77
2021/11/27 08:37:11;;;;;;;;;3.00;3.00;;;;;;;;5061431;28;11460;-77
2021/11/27 08:39:38;;;;;;;;;3.00;3.00;;;;;;;;5074038;28;11636;-76
2021/11/27 08:42:06;;;;;;;;;5.75;4.50;;;;;;;;5064104;28;11510;-77
2021/11/27 08:44:34;;;;;;;;;3.00;3.00;;;;;;;;5054055;28;11621;-77
2021/11/27 08:47:01;;;;;;;;;7.25;4.00;;;;;;;;5057311;28;11523;-77
2021/11/27 08:49:28;;;;;;;;;5.00;5.00;;;;;;;;5065501;28;11505;-77
2021/11/27 08:51:56;;;;;;;;;4.50;4.25;;;;;;;;5068488;28;11539;-77
2021/11/27 08:54:24;;;;;;;;;4.25;4.25;;;;;;;;5070000;28;11590;-76
2021/11/27 08:56:52;;;;;;;;;7.50;4.75;;;;;;;;5078234;28;12399;-77
2021/11/27 08:59:19;;;;;;;;;6.25;4.75;;;;;;;;5051248;28;11498;-77
2021/11/27 09:01:46;;;;;;;;;5.00;5.00;;;;;;;;5065043;28;11446;-77
2021/11/27 09:04:14;;;;;;;;;3.50;3.50;;;;;;;;5067023;28;11520;-77
2021/11/27 09:06:41;;;;;;;;;2.00;2.00;;;;;;;;5070140;28;11544;-75
2021/11/27 09:09:08;;;;;;;;;6.50;4.75;;;;;;;;5046790;28;11544;-77
2021/11/27 09:11:38;;;;;;;;;8.00;4.25;;;;;;;;5062226;28;11549;-77
2021/11/27 09:14:06;;;;;;;;;4.00;4.00;;;;;;;;5064104;28;11703;-76
2021/11/27 09:16:33;;;;;;;;;5.25;5.00;;;;;;;;5065326;28;11538;-76
2021/11/27 09:19:02;;;;;;;;;2.50;2.50;;;;;;;;5080644;28;11572;-77
2021/11/27 09:21:29;;;;;;;;;5.50;5.50;;;;;;;;5075207;28;11526;-76
2021/11/27 09:23:57;;;;;;;;;4.00;4.00;;;;;;;;5068758;28;12373;-76
2021/11/27 09:26:24;;;;;;;;;5.00;5.00;;;;;;;;5080019;28;11561;-76
2021/11/27 09:28:53;;;;;;;;;3.00;3.00;;;;;;;;5046854;28;11540;-76
2021/11/27 09:31:20;;;;;;;;;4.00;4.00;;;;;;;;5068898;28;11561;-77
2021/11/27 09:33:48;;;;;;;;;2.00;2.00;;;;;;;;5059937;28;11559;-76
2021/11/27 09:36:16;;;;;;;;;4.00;4.00;;;;;;;;5059981;28;11563;-76
2021/11/27 09:38:44;;;;;;;;;4.00;4.00;;;;;;;;5031145;28;11560;-78
2021/11/27 09:41:17;;;;;;;;;4.00;4.00;;;;;;;;5062196;28;12481;-79
2021/11/27 09:43:47;;;;;;;;;6.50;6.50;;;;;;;;5056853;28;11530;-79
2021/11/27 09:46:19;;;;;;;;;5.00;2.50;;;;;;;;5068532;28;11521;-80
2021/11/27 09:48:51;;;;;;;;;4.00;4.00;;;;;;;;5050032;28;11595;-79
2021/11/27 09:51:19;;;;;;;;;3.00;3.00;;;;;;;;5063951;28;11323;-78
2021/11/27 09:53:48;;;;;;;;;4.00;4.00;;;;;;;;5074227;28;11055;-78
2021/11/27 09:56:16;;;;;;;;;4.75;4.75;;;;;;;;5073751;28;11574;-79
2021/11/27 09:58:45;;;;;;;;;3.50;3.50;;;;;;;;5060606;28;11536;-78
2021/11/27 10:01:17;;;;;;;;;5.00;5.00;;;;;;;;5023886;28;11499;-78
2021/11/27 10:03:58;;;;;;;;;4.75;4.50;;;;;;;;5039249;28;11542;-76
2021/11/27 10:06:26;;;;;;;;;2.75;2.00;;;;;;;;5019148;28;11522;-78
2021/11/27 10:08:54;;;;;;;;;6.00;6.00;;;;;;;;5019391;28;11537;-78
2021/11/27 10:11:21;;;;;;;;;12.75;12.75;;;;;;;;5018876;28;12357;-80
2021/11/27 10:13:50;;;;;;;;;6.50;6.50;;;;;;;;5019119;28;11587;-84
2021/11/27 10:16:19;;;;;;;;;12.50;12.50;;;;;;;;5001315;28;12338;-79
2021/11/27 10:19:03;;;;;;;;;4.00;2.00;;;;;;;;4998698;28;12389;-76
2021/11/27 10:21:32;;;;;;;;;4.50;4.50;;;;;;;;5017426;28;11505;-78
2021/11/27 10:24:00;;;;;;;;;4.75;4.75;;;;;;;;5014815;28;11591;-75
2021/11/27 10:26:33;;;;;;;;;4.00;1.50;;;;;;;;5013514;28;11530;-79
2021/11/27 10:29:19;;;;;;;;;6.00;4.25;;;;;;;;5018395;28;11572;-77
2021/11/27 10:31:49;;;;;;;;;4.00;4.00;;;;;;;;5016409;28;11434;-79
2021/11/27 10:34:18;;;;;;;;;2.50;2.50;;;;;;;;5017880;28;11631;-76
2021/11/27 10:36:46;;;;;;;;;4.25;4.25;;;;;;;;5010715;28;11519;-77
2021/11/27 10:39:13;;;;;;;;;2.00;2.00;;;;;;;;5018642;28;11631;-80
2021/11/27 10:41:58;;;;;;;;;2.00;2.00;;;;;;;;5015311;28;11964;-77
2021/11/27 10:44:28;;;;;;;;;1.00;1.00;;;;;;;;5006247;28;11510;-76
2021/11/27 10:47:09;;;;;;;;;1.00;1.00;;;;;;;;5020299;28;11627;-77
2021/11/27 10:49:36;;;;;;;;;1.75;1.75;;;;;;;;5017378;28;11498;-78
2021/11/27 10:52:09;;;;;;;;;4.00;1.00;;;;;;;;5015293;28;11546;-79
2021/11/27 10:54:44;;;;;;;;;1.75;1.75;;;;;;;;5033204;28;12378;-75
2021/11/27 10:57:28;;;;;;;;;1.00;1.00;;;;;;;;5022725;28;12272;-80
2021/11/27 10:59:55;;;;;;;;;1.00;1.00;;;;;;;;5030380;28;11483;-77
2021/11/27 11:02:27;;;;;;;;;0.50;0.50;;;;;;;;5023734;28;11505;-80
2021/11/27 11:05:04;;;;;;;;;1.00;1.00;;;;;;;;5029351;28;11540;-77
2021/11/27 11:07:31;;;;;;;;;0.50;0.50;;;;;;;;5017416;28;11696;-79
2021/11/27 11:10:08;;;;;;;;;0.00;0.00;;;;;;;;5024334;28;11545;-80
2021/11/27 11:12:56;;;;;;;;;1.00;1.00;;;;;;;;5039960;28;11632;-79
2021/11/27 11:15:27;;;;;;;;;0.00;0.00;;;;;;;;5030279;28;11552;-78
2021/11/27 11:18:13;;;;;;;;;1.00;1.00;;;;;;;;5035622;28;11487;-80
2021/11/27 11:20:44;;;;;;;;;0.00;0.00;;;;;;;;5029385;28;11490;-80
2021/11/27 11:23:13;;;;;;;;;1.00;1.00;;;;;;;;5035218;28;11619;-82
2021/11/27 11:25:54;;;;;;;;;1.00;1.00;;;;;;;;5038746;28;11536;-79
2021/11/27 11:28:22;;;;;;;;;1.00;1.00;;;;;;;;5042254;28;12276;-78
2021/11/27 11:30:51;;;;;;;;;0.75;0.75;;;;;;;;5022553;28;11436;-78
2021/11/27 11:33:21;;;;;;;;;0.50;0.50;;;;;;;;5043745;28;11490;-78
2021/11/27 11:35:49;;;;;;;;;1.50;0.00;;;;;;;;5013600;28;11484;-76
2021/11/27 11:38:19;;;;;;;;;1.00;1.00;;;;;;;;5035053;28;11477;-76
2021/11/27 11:40:47;;;;;;;;;1.00;1.00;;;;;;;;5042528;28;11537;-78
2021/11/27 11:43:15;;;;;;;;;1.75;1.75;;;;;;;;5040154;28;11516;-80
2021/11/27 11:45:43;;;;;;;;;4.00;4.00;;;;;;;;5022944;28;11480;-78
2021/11/27 11:48:10;;;;;;;;;3.25;3.25;;;;;;;;5040940;28;11541;-78
2021/11/27 11:50:42;;;;;;;;;2.00;2.00;;;;;;;;5036948;28;11619;-80
2021/11/27 11:53:14;;;;;;;;;1.00;1.00;;;;;;;;5023612;28;11529;-82
2021/11/27 11:55:53;;;;;;;;;4.50;4.00;;;;;;;;5033685;28;12551;-80
2021/11/27 11:58:33;;;;;;;;;1.00;1.00;;;;;;;;5039623;28;11700;-78
2021/11/27 12:01:04;;;;;;;;;2.00;2.00;;;;;;;;5039419;28;11555;-73
2021/11/27 12:03:33;;;;;;;;;2.00;2.00;;;;;;;;5023852;28;11509;-80
2021/11/27 12:06:24;;;;;;;;;0.00;0.00;;;;;;;;5041401;28;11523;-83
2021/11/27 12:09:11;;;;;;;;;1.00;1.00;;;;;;;;5041740;28;11513;-83
2021/11/27 12:12:05;;;;;;;;;0.00;0.00;;;;;;;;5025950;28;11503;-83
2021/11/27 12:15:06;;;;;;;;;1.00;1.00;;;;;;;;5038632;28;11294;-80
2021/11/27 12:17:34;;;;;;;;;6.75;5.50;;;;;;;;5040121;28;11224;-78
2021/11/27 12:20:04;;;;;;;;;0.00;0.00;;;;;;;;5027227;28;11508;-79
2021/11/27 12:22:40;;;;;;;;;4.00;1.25;;;;;;;;5037580;28;11324;-78
2021/11/27 12:25:11;;;;;;;;;0.75;0.75;;;;;;;;5036860;28;11566;-78
2021/11/27 12:28:14;;;;;;;;;0.00;0.00;;;;;;;;5038600;28;11131;-80
2021/11/27 12:31:17;;;;;;;;;2.00;0.25;;;;;;;;5035685;28;11103;-80
2021/11/27 12:33:50;;;;;;;;;1.25;1.25;;;;;;;;5027864;28;11488;-79
2021/11/27 12:36:43;;;;;;;;;1.00;1.00;;;;;;;;5042316;28;11469;-80
2021/11/27 12:39:15;;;;;;;;;2.25;1.00;;;;;;;;5039659;28;11552;-77
2021/11/27 12:41:44;;;;;;;;;0.75;0.75;;;;;;;;5024919;28;11506;-77
2021/11/27 12:44:13;;;;;;;;;0.25;0.25;;;;;;;;5050754;28;12245;-78
2021/11/27 12:46:41;;;;;;;;;0.75;0.75;;;;;;;;5042206;28;11546;-77
2021/11/27 12:49:08;;;;;;;;;1.25;1.25;;;;;;;;5063370;28;11534;-78
2021/11/27 12:51:36;;;;;;;;;0.75;0.75;;;;;;;;5024272;28;12326;-80
2021/11/27 12:54:35;;;;;;;;;2.00;0.75;;;;;;;;5043988;28;11581;-77
2021/11/27 12:57:15;;;;;;;;;0.00;0.00;;;;;;;;4956951;28;11520;-78
2021/11/27 12:59:45;;;;;;;;;0.25;0.25;;;;;;;;5020308;28;11515;-77
2021/11/27 13:02:14;;;;;;;;;2.00;2.00;;;;;;;;5041767;28;11538;-79
2021/11/27 13:04:42;;;;;;;;;2.50;2.50;;;;;;;;5058181;28;11524;-76
2021/11/27 13:07:10;;;;;;;;;3.75;3.75;;;;;;;;5038523;28;11509;-78
2021/11/27 13:09:39;;;;;;;;;9.00;8.00;;;;;;;;5044785;28;11515;-76
2021/11/27 13:12:13;;;;;;;;;14.00;12.50;;;;;;;;5051994;28;11501;-76
2021/11/27 13:14:40;;;;;;;;;13.00;13.00;;;;;;;;5042390;28;11538;-74
2021/11/27 13:17:10;;;;;;;;;5.75;5.75;;;;;;;;5043933;28;11550;-75
2021/11/27 13:19:38;;;;;;;;;4.00;4.00;;;;;;;;5042613;28;11509;-77
2021/11/27 13:22:07;;;;;;;;;5.00;5.00;;;;;;;;5045194;28;11603;-76
2021/11/27 13:24:36;;;;;;;;;4.75;4.00;;;;;;;;5057245;28;11499;-76
2021/11/27 13:27:06;;;;;;;;;1.75;1.75;;;;;;;;5042341;28;11482;-80
2021/11/27 13:29:33;;;;;;;;;2.00;2.00;;;;;;;;5039914;28;11531;-78
2021/11/27 13:32:02;;;;;;;;;2.25;2.25;;;;;;;;5022689;28;11468;-75
2021/11/27 13:34:30;;;;;;;;;6.00;5.50;;;;;;;;5053962;28;12381;-81
2021/11/27 13:36:58;;;;;;;;;14.00;14.00;;;;;;;;5057174;28;11498;-78
2021/11/27 13:39:26;;;;;;;;;11.25;9.00;;;;;;;;5034898;28;12285;-80
2021/11/27 13:42:08;;;;;;;;;5.00;5.00;;;;;;;;5039603;28;11562;-79
2021/11/27 13:44:38;;;;;;;;;5.25;5.25;;;;;;;;5041420;28;11518;-81
2021/11/27 13:47:07;;;;;;;;;5.00;5.00;;;;;;;;5025292;28;11554;-81
2021/11/27 13:49:38;;;;;;;;;6.00;6.00;;;;;;;;5039998;28;11550;-75
2021/11/27 13:52:09;;;;;;;;;6.25;6.25;;;;;;;;5041855;28;11493;-76
2021/11/27 13:54:37;;;;;;;;;4.50;4.50;;;;;;;;5041253;28;11472;-76
2021/11/27 13:57:07;;;;;;;;;1.25;1.00;;;;;;;;5028797;28;11591;-78
2021/11/27 13:59:35;;;;;;;;;1.00;1.00;;;;;;;;5034537;28;11173;-76
2021/11/27 14:02:06;;;;;;;;;1.00;1.00;;;;;;;;5037186;28;11156;-74
2021/11/27 14:04:34;;;;;;;;;4.00;4.00;;;;;;;;5039154;28;11171;-75
2021/11/27 14:07:03;;;;;;;;;8.50;8.50;;;;;;;;5027495;28;11255;-76
2021/11/27 14:09:49;;;;;;;;;10.00;5.75;;;;;;;;5034836;28;11513;-74
2021/11/27 14:12:32;;;;;;;;;4.00;4.00;;;;;;;;5028533;28;11506;-77
2021/11/27 14:15:01;;;;;;;;;5.75;5.75;;;;;;;;5029052;28;11537;-80
2021/11/27 14:17:28;;;;;;;;;8.50;7.75;;;;;;;;5038448;28;12301;-80
2021/11/27 14:20:14;;;;;;;;;9.00;9.00;;;;;;;;5039069;28;11675;-80
2021/11/27 14:23:00;;;;;;;;;8.75;8.75;;;;;;;;5030025;28;11488;-81
2021/11/27 14:25:29;;;;;;;;;8.50;8.50;;;;;;;;5032667;28;11494;-81
2021/11/27 14:28:01;;;;;;;;;8.50;8.50;;;;;;;;5032136;28;11549;-79
2021/11/27 14:30:31;;;;;;;;;16.50;13.75;;;;;;;;5016595;28;12309;-79
2021/11/27 14:33:20;;;;;;;;;13.75;13.75;;;;;;;;5029844;28;11552;-80
2021/11/27 14:35:59;;;;;;;;;15.50;15.50;;;;;;;;5036424;28;11584;-78
2021/11/27 14:38:43;;;;;;;;;9.75;9.75;;;;;;;;5034077;28;11655;-77
2021/11/27 14:41:14;;;;;;;;;4.00;4.00;;;;;;;;5025419;28;11558;-81
2021/11/27 14:44:08;;;;;;;;;1.75;1.75;;;;;;;;5031428;28;11563;-80
2021/11/27 14:46:40;;;;;;;;;1.00;1.00;;;;;;;;5029747;28;11595;-77
2021/11/27 14:49:22;;;;;;;;;6.00;6.00;;;;;;;;5030214;28;11520;-78
2021/11/27 14:51:50;;;;;;;;;16.00;13.25;;;;;;;;5042452;28;11507;-77
2021/11/27 14:54:19;;;;;;;;;9.75;9.50;;;;;;;;5038818;28;11552;-77
2021/11/27 14:56:46;;;;;;;;;8.50;6.00;;;;;;;;5031892;28;11582;-78
2021/11/27 14:59:15;;;;;;;;;5.00;5.00;;;;;;;;5010060;28;11509;-79
2021/11/27 15:01:43;;;;;;;;;4.00;4.00;;;;;;;;5050412;28;11679;-81
2021/11/27 15:04:11;;;;;;;;;8.00;8.00;;;;;;;;5021936;28;11493;-78